sensor_id;sensor_type;location;lat;lon;timestamp;P1;durP1;ratioP1;P2;durP2;ratioP2
22571;SDS011;11452;53.368;14.658;2024-03-23T00:56:15;6.40;;;3.80;;
22571;SDS011;11452;53.368;14.658;2024-03-23T01:01:20;7.77;;;3.93;;
22571;SDS011;11452;53.368;14.658;2024-03-23T01:06:26;9.90;;;3.87;;
22571;SDS011;11452;53.368;14.658;2024-03-23T01:11:32;10.00;;;4.47;;
22571;SDS011;11452;53.368;14.658;2024-03-23T01:16:38;9.10;;;3.73;;
22571;SDS011;11452;53.368;14.658;2024-03-23T01:21:44;9.70;;;4.00;;
22571;SDS011;11452;53.368;14.658;2024-03-23T01:26:50;8.17;;;4.37;;
22571;SDS011;11452;53.368;14.658;2024-03-23T01:31:56;10.07;;;4.13;;
22571;SDS011;11452;53.368;14.658;2024-03-23T01:37:01;7.77;;;4.23;;
22571;SDS011;11452;53.368;14.658;2024-03-23T01:42:08;5.60;;;3.40;;
22571;SDS011;11452;53.368;14.658;2024-03-23T01:47:14;9.30;;;3.43;;
22571;SDS011;11452;53.368;14.658;2024-03-23T01:52:20;8.43;;;4.27;;
22571;SDS011;11452;53.368;14.658;2024-03-23T01:57:26;9.40;;;3.53;;
22571;SDS011;11452;53.368;14.658;2024-03-23T02:02:32;7.47;;;3.30;;
22571;SDS011;11452;53.368;14.658;2024-03-23T02:07:38;7.53;;;4.13;;
22571;SDS011;11452;53.368;14.658;2024-03-23T02:12:45;7.87;;;3.63;;
22571;SDS011;11452;53.368;14.658;2024-03-23T02:17:50;7.53;;;3.80;;
22571;SDS011;11452;53.368;14.658;2024-03-23T02:22:56;6.40;;;3.80;;
22571;SDS011;11452;53.368;14.658;2024-03-23T02:28:01;5.40;;;3.37;;
22571;SDS011;11452;53.368;14.658;2024-03-23T02:33:07;10.20;;;3.57;;
22571;SDS011;11452;53.368;14.658;2024-03-23T02:38:13;9.80;;;3.53;;
22571;SDS011;11452;53.368;14.658;2024-03-23T02:43:19;9.10;;;4.33;;
22571;SDS011;11452;53.368;14.658;2024-03-23T02:48:25;8.97;;;3.67;;
22571;SDS011;11452;53.368;14.658;2024-03-23T02:53:30;6.23;;;3.67;;
22571;SDS011;11452;53.368;14.658;2024-03-23T02:58:36;11.10;;;4.23;;
22571;SDS011;11452;53.368;14.658;2024-03-23T03:03:42;9.40;;;4.33;;
22571;SDS011;11452;53.368;14.658;2024-03-23T03:08:48;9.53;;;3.70;;
22571;SDS011;11452;53.368;14.658;2024-03-23T03:13:54;7.03;;;3.73;;
22571;SDS011;11452;53.368;14.658;2024-03-23T03:19:00;8.70;;;4.00;;
22571;SDS011;11452;53.368;14.658;2024-03-23T03:24:06;8.47;;;4.30;;
22571;SDS011;11452;53.368;14.658;2024-03-23T03:29:11;8.57;;;3.67;;
22571;SDS011;11452;53.368;14.658;2024-03-23T03:34:17;10.27;;;3.57;;
22571;SDS011;11452;53.368;14.658;2024-03-23T03:39:23;9.70;;;3.83;;
22571;SDS011;11452;53.368;14.658;2024-03-23T03:44:30;9.57;;;4.63;;
22571;SDS011;11452;53.368;14.658;2024-03-23T03:49:36;7.53;;;3.70;;
22571;SDS011;11452;53.368;14.658;2024-03-23T03:54:41;9.53;;;3.83;;
22571;SDS011;11452;53.368;14.658;2024-03-23T03:59:47;5.90;;;3.20;;
22571;SDS011;11452;53.368;14.658;2024-03-23T04:04:53;10.40;;;3.83;;
22571;SDS011;11452;53.368;14.658;2024-03-23T04:09:58;10.17;;;3.90;;
22571;SDS011;11452;53.368;14.658;2024-03-23T04:15:04;8.20;;;3.30;;
22571;SDS011;11452;53.368;14.658;2024-03-23T04:20:10;8.90;;;3.00;;
22571;SDS011;11452;53.368;14.658;2024-03-23T04:25:18;5.27;;;3.20;;
22571;SDS011;11452;53.368;14.658;2024-03-23T04:30:23;10.47;;;3.50;;
22571;SDS011;11452;53.368;14.658;2024-03-23T04:35:31;9.03;;;3.07;;
22571;SDS011;11452;53.368;14.658;2024-03-23T04:40:36;8.50;;;3.47;;
22571;SDS011;11452;53.368;14.658;2024-03-23T04:45:42;9.60;;;3.27;;
22571;SDS011;11452;53.368;14.658;2024-03-23T04:50:48;6.20;;;2.80;;
22571;SDS011;11452;53.368;14.658;2024-03-23T04:55:57;7.17;;;3.97;;
22571;SDS011;11452;53.368;14.658;2024-03-23T05:01:03;10.03;;;4.23;;
22571;SDS011;11452;53.368;14.658;2024-03-23T05:06:08;8.63;;;4.13;;
22571;SDS011;11452;53.368;14.658;2024-03-23T05:11:14;14.37;;;4.37;;
22571;SDS011;11452;53.368;14.658;2024-03-23T05:16:20;6.40;;;4.20;;
22571;SDS011;11452;53.368;14.658;2024-03-23T05:21:25;7.43;;;3.90;;
22571;SDS011;11452;53.368;14.658;2024-03-23T05:26:34;8.03;;;3.93;;
22571;SDS011;11452;53.368;14.658;2024-03-23T05:31:40;7.83;;;4.63;;
22571;SDS011;11452;53.368;14.658;2024-03-23T05:36:46;5.70;;;4.03;;
22571;SDS011;11452;53.368;14.658;2024-03-23T05:41:53;7.43;;;4.37;;
22571;SDS011;11452;53.368;14.658;2024-03-23T05:46:58;8.10;;;4.37;;
22571;SDS011;11452;53.368;14.658;2024-03-23T05:52:04;6.83;;;4.80;;
22571;SDS011;11452;53.368;14.658;2024-03-23T05:57:10;5.57;;;3.67;;
22571;SDS011;11452;53.368;14.658;2024-03-23T06:02:16;8.33;;;3.30;;
22571;SDS011;11452;53.368;14.658;2024-03-23T06:07:21;7.03;;;3.03;;
22571;SDS011;11452;53.368;14.658;2024-03-23T06:12:27;5.93;;;3.20;;
22571;SDS011;11452;53.368;14.658;2024-03-23T06:17:33;6.33;;;3.17;;
22571;SDS011;11452;53.368;14.658;2024-03-23T06:22:38;8.03;;;3.40;;
22571;SDS011;11452;53.368;14.658;2024-03-23T06:27:44;5.13;;;2.87;;
22571;SDS011;11452;53.368;14.658;2024-03-23T06:32:50;8.63;;;3.23;;
22571;SDS011;11452;53.368;14.658;2024-03-23T06:37:57;7.87;;;2.97;;
22571;SDS011;11452;53.368;14.658;2024-03-23T06:43:02;10.07;;;3.33;;
22571;SDS011;11452;53.368;14.658;2024-03-23T06:48:09;9.10;;;3.67;;
22571;SDS011;11452;53.368;14.658;2024-03-23T06:53:15;5.73;;;2.60;;
22571;SDS011;11452;53.368;14.658;2024-03-23T06:58:21;5.77;;;2.43;;
22571;SDS011;11452;53.368;14.658;2024-03-23T07:03:28;6.13;;;2.77;;
22571;SDS011;11452;53.368;14.658;2024-03-23T07:08:34;5.60;;;3.30;;
22571;SDS011;11452;53.368;14.658;2024-03-23T07:13:39;8.93;;;4.47;;
22571;SDS011;11452;53.368;14.658;2024-03-23T07:18:45;7.73;;;4.63;;
22571;SDS011;11452;53.368;14.658;2024-03-23T07:23:51;7.50;;;4.97;;
22571;SDS011;11452;53.368;14.658;2024-03-23T07:28:56;7.73;;;4.60;;
22571;SDS011;11452;53.368;14.658;2024-03-23T07:34:02;7.30;;;5.07;;
22571;SDS011;11452;53.368;14.658;2024-03-23T07:39:09;7.97;;;4.93;;
22571;SDS011;11452;53.368;14.658;2024-03-23T07:44:16;9.30;;;4.80;;
22571;SDS011;11452;53.368;14.658;2024-03-23T07:49:21;7.03;;;3.53;;
22571;SDS011;11452;53.368;14.658;2024-03-23T07:54:27;6.77;;;4.70;;
22571;SDS011;11452;53.368;14.658;2024-03-23T07:59:33;7.07;;;4.20;;
22571;SDS011;11452;53.368;14.658;2024-03-23T08:04:39;9.53;;;4.40;;
22571;SDS011;11452;53.368;14.658;2024-03-23T08:09:44;5.50;;;3.23;;
22571;SDS011;11452;53.368;14.658;2024-03-23T08:14:50;8.77;;;3.57;;
22571;SDS011;11452;53.368;14.658;2024-03-23T08:19:56;5.83;;;3.50;;
22571;SDS011;11452;53.368;14.658;2024-03-23T08:25:01;7.53;;;4.43;;
22571;SDS011;11452;53.368;14.658;2024-03-23T08:30:08;5.07;;;3.17;;
22571;SDS011;11452;53.368;14.658;2024-03-23T08:35:14;6.93;;;2.80;;
22571;SDS011;11452;53.368;14.658;2024-03-23T08:40:20;4.70;;;3.03;;
22571;SDS011;11452;53.368;14.658;2024-03-23T08:45:26;6.03;;;3.40;;
22571;SDS011;11452;53.368;14.658;2024-03-23T08:50:31;5.47;;;3.17;;
22571;SDS011;11452;53.368;14.658;2024-03-23T08:55:37;4.27;;;2.97;;
22571;SDS011;11452;53.368;14.658;2024-03-23T09:00:43;6.13;;;3.73;;
22571;SDS011;11452;53.368;14.658;2024-03-23T09:05:49;7.67;;;3.20;;
22571;SDS011;11452;53.368;14.658;2024-03-23T09:10:55;8.63;;;2.83;;
22571;SDS011;11452;53.368;14.658;2024-03-23T09:16:01;6.63;;;2.50;;
22571;SDS011;11452;53.368;14.658;2024-03-23T09:21:18;3.97;;;2.53;;
22571;SDS011;11452;53.368;14.658;2024-03-23T09:26:19;7.57;;;2.70;;
22571;SDS011;11452;53.368;14.658;2024-03-23T09:31:25;5.00;;;2.97;;
22571;SDS011;11452;53.368;14.658;2024-03-23T09:36:30;4.67;;;3.23;;
22571;SDS011;11452;53.368;14.658;2024-03-23T09:41:36;4.97;;;2.90;;
22571;SDS011;11452;53.368;14.658;2024-03-23T09:46:42;5.43;;;3.67;;
22571;SDS011;11452;53.368;14.658;2024-03-23T09:51:47;7.37;;;3.43;;
22571;SDS011;11452;53.368;14.658;2024-03-23T09:56:54;5.80;;;3.00;;
22571;SDS011;11452;53.368;14.658;2024-03-23T10:02:04;5.33;;;2.90;;
22571;SDS011;11452;53.368;14.658;2024-03-23T10:07:15;7.87;;;3.77;;
22571;SDS011;11452;53.368;14.658;2024-03-23T10:12:22;6.40;;;3.07;;
22571;SDS011;11452;53.368;14.658;2024-03-23T10:17:29;4.87;;;2.43;;
22571;SDS011;11452;53.368;14.658;2024-03-23T10:22:36;4.90;;;1.83;;
22571;SDS011;11452;53.368;14.658;2024-03-23T10:27:42;5.67;;;1.80;;
22571;SDS011;11452;53.368;14.658;2024-03-23T10:32:48;4.00;;;1.60;;
22571;SDS011;11452;53.368;14.658;2024-03-23T10:37:54;7.70;;;2.40;;
22571;SDS011;11452;53.368;14.658;2024-03-23T10:43:03;6.80;;;3.10;;
22571;SDS011;11452;53.368;14.658;2024-03-23T10:48:09;4.80;;;3.13;;
22571;SDS011;11452;53.368;14.658;2024-03-23T10:53:14;5.57;;;2.40;;
22571;SDS011;11452;53.368;14.658;2024-03-23T10:58:27;10.73;;;3.70;;
22571;SDS011;11452;53.368;14.658;2024-03-23T11:08:41;5.97;;;2.60;;
22571;SDS011;11452;53.368;14.658;2024-03-23T11:13:50;7.37;;;2.37;;
22571;SDS011;11452;53.368;14.658;2024-03-23T11:24:40;3.67;;;1.90;;
22571;SDS011;11452;53.368;14.658;2024-03-23T11:29:47;2.70;;;1.63;;
22571;SDS011;11452;53.368;14.658;2024-03-23T11:34:52;4.80;;;1.57;;
22571;SDS011;11452;53.368;14.658;2024-03-23T11:39:58;2.80;;;1.33;;
22571;SDS011;11452;53.368;14.658;2024-03-23T11:45:11;4.60;;;1.67;;
22571;SDS011;11452;53.368;14.658;2024-03-23T11:50:19;3.40;;;1.57;;
22571;SDS011;11452;53.368;14.658;2024-03-23T11:55:25;2.87;;;1.70;;
22571;SDS011;11452;53.368;14.658;2024-03-23T12:00:30;5.43;;;2.23;;
22571;SDS011;11452;53.368;14.658;2024-03-23T12:05:36;5.90;;;2.10;;
22571;SDS011;11452;53.368;14.658;2024-03-23T12:10:46;4.13;;;1.77;;
22571;SDS011;11452;53.368;14.658;2024-03-23T12:16:13;4.47;;;2.00;;
22571;SDS011;11452;53.368;14.658;2024-03-23T12:21:19;4.83;;;2.23;;
22571;SDS011;11452;53.368;14.658;2024-03-23T12:26:26;5.77;;;2.27;;
22571;SDS011;11452;53.368;14.658;2024-03-23T12:31:32;5.57;;;2.33;;
22571;SDS011;11452;53.368;14.658;2024-03-23T12:36:37;5.73;;;2.23;;
22571;SDS011;11452;53.368;14.658;2024-03-23T12:41:43;6.30;;;2.50;;
22571;SDS011;11452;53.368;14.658;2024-03-23T12:46:49;5.33;;;2.47;;
22571;SDS011;11452;53.368;14.658;2024-03-23T12:51:55;3.30;;;2.80;;
22571;SDS011;11452;53.368;14.658;2024-03-23T12:57:01;5.10;;;2.17;;
22571;SDS011;11452;53.368;14.658;2024-03-23T13:02:07;7.80;;;2.53;;
22571;SDS011;11452;53.368;14.658;2024-03-23T13:07:13;5.07;;;2.60;;
22571;SDS011;11452;53.368;14.658;2024-03-23T13:12:19;2.90;;;1.93;;
22571;SDS011;11452;53.368;14.658;2024-03-23T13:17:32;5.47;;;2.60;;
22571;SDS011;11452;53.368;14.658;2024-03-23T13:22:32;4.43;;;2.40;;
22571;SDS011;11452;53.368;14.658;2024-03-23T13:27:40;6.70;;;2.13;;
22571;SDS011;11452;53.368;14.658;2024-03-23T13:32:46;5.80;;;2.43;;
22571;SDS011;11452;53.368;14.658;2024-03-23T13:37:52;4.70;;;2.70;;
22571;SDS011;11452;53.368;14.658;2024-03-23T13:42:57;7.43;;;2.37;;
22571;SDS011;11452;53.368;14.658;2024-03-23T13:48:03;6.23;;;3.03;;
22571;SDS011;11452;53.368;14.658;2024-03-23T13:53:12;6.53;;;2.77;;
22571;SDS011;11452;53.368;14.658;2024-03-23T13:58:18;4.53;;;2.73;;
22571;SDS011;11452;53.368;14.658;2024-03-23T14:03:24;5.07;;;2.77;;
22571;SDS011;11452;53.368;14.658;2024-03-23T14:08:31;4.80;;;2.40;;
22571;SDS011;11452;53.368;14.658;2024-03-23T14:13:38;6.50;;;3.57;;
22571;SDS011;11452;53.368;14.658;2024-03-23T14:18:46;6.57;;;2.97;;
22571;SDS011;11452;53.368;14.658;2024-03-23T14:23:52;3.77;;;2.23;;
22571;SDS011;11452;53.368;14.658;2024-03-23T14:28:59;5.87;;;2.47;;
22571;SDS011;11452;53.368;14.658;2024-03-23T14:34:04;4.67;;;2.33;;
22571;SDS011;11452;53.368;14.658;2024-03-23T14:39:10;4.53;;;3.00;;
22571;SDS011;11452;53.368;14.658;2024-03-23T14:44:16;4.63;;;2.90;;
22571;SDS011;11452;53.368;14.658;2024-03-23T14:49:22;6.37;;;3.30;;
22571;SDS011;11452;53.368;14.658;2024-03-23T14:54:28;5.37;;;3.00;;
22571;SDS011;11452;53.368;14.658;2024-03-23T14:59:34;6.90;;;2.73;;
22571;SDS011;11452;53.368;14.658;2024-03-23T15:04:41;7.67;;;3.53;;
22571;SDS011;11452;53.368;14.658;2024-03-23T15:09:47;6.20;;;3.50;;
22571;SDS011;11452;53.368;14.658;2024-03-23T15:14:53;5.80;;;2.83;;
22571;SDS011;11452;53.368;14.658;2024-03-23T15:20:00;4.63;;;2.70;;
22571;SDS011;11452;53.368;14.658;2024-03-23T15:25:06;7.37;;;3.67;;
22571;SDS011;11452;53.368;14.658;2024-03-23T15:30:12;6.73;;;3.83;;
22571;SDS011;11452;53.368;14.658;2024-03-23T15:35:18;6.27;;;3.30;;
22571;SDS011;11452;53.368;14.658;2024-03-23T15:40:25;3.73;;;2.60;;
22571;SDS011;11452;53.368;14.658;2024-03-23T15:45:31;5.17;;;2.60;;
22571;SDS011;11452;53.368;14.658;2024-03-23T15:50:37;6.10;;;3.47;;
22571;SDS011;11452;53.368;14.658;2024-03-23T15:55:43;7.40;;;2.37;;
22571;SDS011;11452;53.368;14.658;2024-03-23T16:00:55;4.43;;;2.50;;
22571;SDS011;11452;53.368;14.658;2024-03-23T16:06:02;4.90;;;2.47;;
22571;SDS011;11452;53.368;14.658;2024-03-23T16:11:08;4.70;;;2.20;;
22571;SDS011;11452;53.368;14.658;2024-03-23T16:16:14;5.30;;;2.70;;
22571;SDS011;11452;53.368;14.658;2024-03-23T16:21:20;3.37;;;1.93;;
22571;SDS011;11452;53.368;14.658;2024-03-23T16:26:25;5.30;;;1.80;;
22571;SDS011;11452;53.368;14.658;2024-03-23T16:31:32;3.00;;;1.57;;
22571;SDS011;11452;53.368;14.658;2024-03-23T16:36:38;3.00;;;1.50;;
22571;SDS011;11452;53.368;14.658;2024-03-23T16:41:44;2.87;;;1.50;;
22571;SDS011;11452;53.368;14.658;2024-03-23T16:46:50;3.10;;;1.70;;
22571;SDS011;11452;53.368;14.658;2024-03-23T16:51:55;4.70;;;2.33;;
22571;SDS011;11452;53.368;14.658;2024-03-23T16:57:01;3.43;;;1.70;;
22571;SDS011;11452;53.368;14.658;2024-03-23T17:02:07;2.97;;;1.83;;
22571;SDS011;11452;53.368;14.658;2024-03-23T17:07:14;3.00;;;1.83;;
22571;SDS011;11452;53.368;14.658;2024-03-23T17:12:20;3.13;;;1.53;;
22571;SDS011;11452;53.368;14.658;2024-03-23T17:17:26;3.57;;;1.50;;
22571;SDS011;11452;53.368;14.658;2024-03-23T17:22:32;4.70;;;1.87;;
22571;SDS011;11452;53.368;14.658;2024-03-23T17:27:38;3.00;;;2.63;;
22571;SDS011;11452;53.368;14.658;2024-03-23T17:32:44;4.87;;;2.50;;
22571;SDS011;11452;53.368;14.658;2024-03-23T17:37:50;3.57;;;3.27;;
22571;SDS011;11452;53.368;14.658;2024-03-23T17:42:55;5.70;;;4.40;;
22571;SDS011;11452;53.368;14.658;2024-03-23T17:48:04;4.40;;;3.50;;
22571;SDS011;11452;53.368;14.658;2024-03-23T17:53:10;3.70;;;2.80;;
22571;SDS011;11452;53.368;14.658;2024-03-23T17:58:16;3.20;;;1.93;;
22571;SDS011;11452;53.368;14.658;2024-03-23T18:03:21;2.47;;;1.70;;
22571;SDS011;11452;53.368;14.658;2024-03-23T18:08:27;3.03;;;1.80;;
22571;SDS011;11452;53.368;14.658;2024-03-23T18:13:33;3.07;;;1.60;;
22571;SDS011;11452;53.368;14.658;2024-03-23T18:18:39;1.70;;;1.50;;
22571;SDS011;11452;53.368;14.658;2024-03-23T18:23:47;6.97;;;5.23;;
22571;SDS011;11452;53.368;14.658;2024-03-23T18:28:53;4.77;;;3.37;;
22571;SDS011;11452;53.368;14.658;2024-03-23T18:33:59;3.03;;;2.10;;
22571;SDS011;11452;53.368;14.658;2024-03-23T18:39:05;1.87;;;1.40;;
22571;SDS011;11452;53.368;14.658;2024-03-23T18:44:11;2.10;;;1.40;;
22571;SDS011;11452;53.368;14.658;2024-03-23T18:49:17;1.53;;;1.10;;
22571;SDS011;11452;53.368;14.658;2024-03-23T18:54:22;3.63;;;1.70;;
22571;SDS011;11452;53.368;14.658;2024-03-23T18:59:28;2.77;;;1.73;;
22571;SDS011;11452;53.368;14.658;2024-03-23T19:04:34;2.57;;;1.73;;
22571;SDS011;11452;53.368;14.658;2024-03-23T19:09:40;2.00;;;1.63;;
22571;SDS011;11452;53.368;14.658;2024-03-23T19:14:45;2.53;;;1.53;;
22571;SDS011;11452;53.368;14.658;2024-03-23T19:19:52;3.57;;;2.00;;
22571;SDS011;11452;53.368;14.658;2024-03-23T19:25:00;2.00;;;1.80;;
22571;SDS011;11452;53.368;14.658;2024-03-23T19:30:10;3.53;;;2.03;;
22571;SDS011;11452;53.368;14.658;2024-03-23T19:35:16;2.67;;;1.93;;
22571;SDS011;11452;53.368;14.658;2024-03-23T19:40:21;3.20;;;2.10;;
22571;SDS011;11452;53.368;14.658;2024-03-23T19:45:27;3.33;;;2.47;;
22571;SDS011;11452;53.368;14.658;2024-03-23T19:50:36;4.17;;;2.53;;
22571;SDS011;11452;53.368;14.658;2024-03-23T19:55:41;3.93;;;3.40;;
22571;SDS011;11452;53.368;14.658;2024-03-23T20:00:47;5.73;;;4.37;;
22571;SDS011;11452;53.368;14.658;2024-03-23T20:05:56;8.30;;;5.37;;
22571;SDS011;11452;53.368;14.658;2024-03-23T20:11:05;7.63;;;4.50;;
22571;SDS011;11452;53.368;14.658;2024-03-23T20:16:11;6.57;;;3.97;;
22571;SDS011;11452;53.368;14.658;2024-03-23T20:21:16;5.90;;;3.80;;
22571;SDS011;11452;53.368;14.658;2024-03-23T20:26:22;4.23;;;3.70;;
22571;SDS011;11452;53.368;14.658;2024-03-23T20:31:28;5.97;;;3.30;;
22571;SDS011;11452;53.368;14.658;2024-03-23T20:36:35;4.47;;;3.67;;
22571;SDS011;11452;53.368;14.658;2024-03-23T20:41:41;6.80;;;3.27;;
22571;SDS011;11452;53.368;14.658;2024-03-23T20:46:47;7.33;;;4.43;;
22571;SDS011;11452;53.368;14.658;2024-03-23T20:51:53;8.30;;;4.13;;
22571;SDS011;11452;53.368;14.658;2024-03-23T20:56:58;5.90;;;3.30;;
22571;SDS011;11452;53.368;14.658;2024-03-23T21:02:05;6.00;;;3.10;;
22571;SDS011;11452;53.368;14.658;2024-03-23T21:07:10;6.87;;;3.53;;
22571;SDS011;11452;53.368;14.658;2024-03-23T21:12:16;3.53;;;2.97;;
22571;SDS011;11452;53.368;14.658;2024-03-23T21:17:22;6.20;;;3.03;;
22571;SDS011;11452;53.368;14.658;2024-03-23T21:22:28;4.23;;;3.07;;
22571;SDS011;11452;53.368;14.658;2024-03-23T21:27:33;3.53;;;2.40;;
22571;SDS011;11452;53.368;14.658;2024-03-23T21:32:41;4.07;;;3.23;;
22571;SDS011;11452;53.368;14.658;2024-03-23T21:37:50;4.73;;;3.50;;
22571;SDS011;11452;53.368;14.658;2024-03-23T21:42:56;4.23;;;3.10;;
22571;SDS011;11452;53.368;14.658;2024-03-23T21:48:02;6.33;;;3.47;;
22571;SDS011;11452;53.368;14.658;2024-03-23T21:53:08;5.73;;;3.70;;
22571;SDS011;11452;53.368;14.658;2024-03-23T21:58:14;4.40;;;3.43;;
22571;SDS011;11452;53.368;14.658;2024-03-23T22:03:20;8.10;;;4.00;;
22571;SDS011;11452;53.368;14.658;2024-03-23T22:08:26;4.87;;;3.87;;
22571;SDS011;11452;53.368;14.658;2024-03-23T22:13:32;6.23;;;3.77;;
22571;SDS011;11452;53.368;14.658;2024-03-23T22:18:38;7.57;;;3.60;;
22571;SDS011;11452;53.368;14.658;2024-03-23T22:23:44;5.13;;;4.20;;
22571;SDS011;11452;53.368;14.658;2024-03-23T22:28:49;5.00;;;3.97;;
22571;SDS011;11452;53.368;14.658;2024-03-23T22:33:55;4.77;;;3.60;;
22571;SDS011;11452;53.368;14.658;2024-03-23T22:39:00;4.57;;;3.60;;
22571;SDS011;11452;53.368;14.658;2024-03-23T22:44:08;4.30;;;3.90;;
22571;SDS011;11452;53.368;14.658;2024-03-23T22:49:14;4.40;;;3.67;;
22571;SDS011;11452;53.368;14.658;2024-03-23T22:54:19;7.97;;;4.17;;
22571;SDS011;11452;53.368;14.658;2024-03-23T22:59:25;7.20;;;4.00;;
22571;SDS011;11452;53.368;14.658;2024-03-23T23:04:31;5.57;;;3.93;;
22571;SDS011;11452;53.368;14.658;2024-03-23T23:09:37;5.23;;;3.43;;
22571;SDS011;11452;53.368;14.658;2024-03-23T23:14:43;7.50;;;4.77;;
22571;SDS011;11452;53.368;14.658;2024-03-23T23:19:49;4.63;;;4.10;;
22571;SDS011;11452;53.368;14.658;2024-03-23T23:24:55;4.10;;;3.17;;
22571;SDS011;11452;53.368;14.658;2024-03-23T23:30:01;8.80;;;3.73;;
22571;SDS011;11452;53.368;14.658;2024-03-23T23:35:08;4.10;;;2.90;;
22571;SDS011;11452;53.368;14.658;2024-03-23T23:40:14;6.07;;;3.40;;
22571;SDS011;11452;53.368;14.658;2024-03-23T23:45:19;4.47;;;3.33;;
22571;SDS011;11452;53.368;14.658;2024-03-23T23:50:25;5.03;;;3.93;;
22571;SDS011;11452;53.368;14.658;2024-03-23T23:55:31;4.97;;;3.57;;
